Local and Regional Airport Weather



KPVE - Beech River Regional Airport
Distance from station: NW 4mi, 6km
Updated: Thu, Apr-25-2019 3:35am CDT
Overcast
Overcast
 Wind from calm
Wind: Calm
Temperature: 61°F , 16°C
Dew Point: 59°F , 15°C
Humidity: 94%
Barometer: 29.82 inHg , 1009.8 hPa
Clouds: Overcast
Visibility: 10 miles , 16 km
Cloud details: Partly cloudy 4800 ft
Partly cloudy 5500 ft
Overcast 6500 ft
2019/04/25 08:35 KPVE 250835Z AUTO 00000KT 10SM SCT048 SCT055 OVC065 16/15 A2982 RMK A01
KSNH - Savannah Hardin Co. Airport
Distance from station: S 34mi, 54km
Updated: Thu, Apr-25-2019 3:35am CDT
Overcast
Overcast
 Wind from SSE
Wind: SSE 5 mph , 7 km/h
Temperature: 64°F , 18°C
Dew Point: 59°F , 15°C
Humidity: 83%
Barometer: 29.82 inHg , 1009.8 hPa
Clouds: Overcast
Visibility: 10 miles , 16 km
Cloud details: Few Clouds 3400 ft
Mostly cloudy 4300 ft
Overcast 4900 ft
2019/04/25 08:35 KSNH 250835Z AUTO 15004KT 10SM FEW034 BKN043 OVC049 18/15 A2982 RMK A01
 
KMKL - McKellar-Sipes Regional Airport
Distance from station: W 44mi, 72km
Updated: Thu, Apr-25-2019 2:53am CDT
Clear
Clear
 Wind from calm
Wind: Calm
Temperature: 61°F , 16°C
Dew Point: 57°F , 14°C
Humidity: 88%
Barometer: 29.82 inHg , 1009.8 hPa
Clouds: Clear
Visibility: 10 miles , 16 km
2019/04/25 07:53 KMKL 250753Z AUTO 00000KT 10SM CLR 16/14 A2982 RMK AO2 SLP093 T01610144
KMSL - NW Alabama Regional Airport
Distance from station: SE 78mi, 126km
Updated: Thu, Apr-25-2019 2:53am CDT
Clear
Clear
 Wind from SSW
Wind: SSW 9 mph , 15 km/h
Temperature: 68°F , 20°C
Dew Point: 59°F , 15°C
Humidity: 73%
Barometer: 29.87 inHg , 1011.5 hPa
Clouds: Clear
Visibility: 10 miles , 16 km
2019/04/25 07:53 KMSL 250753Z AUTO 20008KT 10SM CLR 20/15 A2987 RMK AO2 SLP108 T02000150
 
KBNA - Nashville International Airport
Distance from station: NE 97mi, 157km
Updated: Thu, Apr-25-2019 2:53am CDT
Overcast
Overcast
 Wind from S
Wind: S 7 mph , 11 km/h
Temperature: 68°F , 20°C
Dew Point: 54°F , 12°C
Humidity: 60%
Barometer: 29.84 inHg , 1010.5 hPa
Clouds: Overcast
Visibility: 10 miles , 16 km
Cloud details: Mostly cloudy 15000 ft
Overcast 18000 ft
2019/04/25 07:53 KBNA 250753Z 19006KT 10SM BKN150 OVC180 20/12 A2984 RMK AO2 SLP098 T02000117
KMEM - Memphis International Airport
Distance from station: W 108mi, 173km
Updated: Thu, Apr-25-2019 2:54am CDT
Overcast
Overcast
 Wind from S
Wind: S 7 mph , 11 km/h
Temperature: 66°F , 19°C
Dew Point: 61°F , 16°C
Humidity: 83%
Barometer: 29.79 inHg , 1008.8 hPa
Clouds: Overcast
Visibility: 10 miles , 16 km
Cloud details: Few Clouds 8000 ft
Overcast 18000 ft
2019/04/25 07:54 KMEM 250754Z 18006KT 10SM FEW080 OVC180 19/16 A2979 RMK AO2 SLP084 T01940156 $
 
KTYS - Knoxville McGhee Tyson Airport
Distance from station: E 234mi, 377km
Updated: Thu, Apr-25-2019 2:53am CDT
Overcast
Overcast
 Wind from SSW
Wind: SSW 12 mph , 19 km/h
Temperature: 64°F , 18°C
Dew Point: 50°F , 10°C
Humidity: 60%
Barometer: 29.89 inHg , 1012.2 hPa
Clouds: Overcast
Visibility: 10 miles , 16 km
Cloud details: Overcast 25000 ft
2019/04/25 07:53 KTYS 250753Z 21010KT 10SM OVC250 18/10 A2989 RMK AO2 SLP112 T01780100
KSTL - St. Louis International Airport
Distance from station: NW 247mi, 398km
Updated: Thu, Apr-25-2019 3:40am CDT
Mist, Overcast
Mist, Overcast
 Wind from ENE
Wind: ENE 6 mph , 9 km/h
Temperature: 57°F , 14°C
Dew Point: 57°F , 14°C
Humidity: 100%
Barometer: 29.78 inHg , 1008.5 hPa
Summary: Mist
Clouds: Overcast
Visibility: 3/4 mile , 1.2 km
Cloud details: Overcast 200 ft
2019/04/25 08:40 KSTL 250840Z 06005KT 3/4SM R30R/2400V5000FT BR OVC002 14/14 A2978 RMK AO2 T01440139 $

Refresh Page for latest data.